sensor_id;sensor_type;location;lat;lon;timestamp;P1;durP1;ratioP1;P2;durP2;ratioP2
8439;SDS011;4257;48.568;7.818;2023-12-07T00:00:52;2.20;;;1.23;;
8439;SDS011;4257;48.568;7.818;2023-12-07T00:03:19;1.87;;;1.03;;
8439;SDS011;4257;48.568;7.818;2023-12-07T00:05:46;1.20;;;1.10;;
8439;SDS011;4257;48.568;7.818;2023-12-07T00:08:13;4.83;;;1.97;;
8439;SDS011;4257;48.568;7.818;2023-12-07T00:10:39;1.90;;;1.13;;
8439;SDS011;4257;48.568;7.818;2023-12-07T00:13:06;2.27;;;2.07;;
8439;SDS011;4257;48.568;7.818;2023-12-07T00:15:32;3.60;;;1.40;;
8439;SDS011;4257;48.568;7.818;2023-12-07T00:17:59;1.80;;;1.50;;
8439;SDS011;4257;48.568;7.818;2023-12-07T00:20:25;2.57;;;1.90;;
8439;SDS011;4257;48.568;7.818;2023-12-07T00:22:53;3.83;;;1.63;;
8439;SDS011;4257;48.568;7.818;2023-12-07T00:25:20;1.63;;;1.23;;
8439;SDS011;4257;48.568;7.818;2023-12-07T00:27:47;4.60;;;1.20;;
8439;SDS011;4257;48.568;7.818;2023-12-07T00:30:13;2.10;;;1.90;;
8439;SDS011;4257;48.568;7.818;2023-12-07T00:32:42;2.27;;;1.47;;
8439;SDS011;4257;48.568;7.818;2023-12-07T00:35:09;0.70;;;0.70;;
8439;SDS011;4257;48.568;7.818;2023-12-07T00:37:36;5.77;;;1.53;;
8439;SDS011;4257;48.568;7.818;2023-12-07T00:40:04;2.50;;;1.37;;
8439;SDS011;4257;48.568;7.818;2023-12-07T00:42:33;1.30;;;0.97;;
8439;SDS011;4257;48.568;7.818;2023-12-07T00:45:02;2.47;;;1.97;;
8439;SDS011;4257;48.568;7.818;2023-12-07T00:47:29;2.47;;;0.67;;
8439;SDS011;4257;48.568;7.818;2023-12-07T00:49:55;1.10;;;1.00;;
8439;SDS011;4257;48.568;7.818;2023-12-07T00:52:22;2.83;;;1.73;;
8439;SDS011;4257;48.568;7.818;2023-12-07T00:54:48;1.87;;;0.90;;
8439;SDS011;4257;48.568;7.818;2023-12-07T00:57:16;1.43;;;1.23;;
8439;SDS011;4257;48.568;7.818;2023-12-07T00:59:42;1.30;;;1.07;;
8439;SDS011;4257;48.568;7.818;2023-12-07T01:02:09;0.93;;;0.67;;
8439;SDS011;4257;48.568;7.818;2023-12-07T01:04:35;0.73;;;0.73;;
8439;SDS011;4257;48.568;7.818;2023-12-07T01:07:02;2.17;;;0.77;;
8439;SDS011;4257;48.568;7.818;2023-12-07T01:09:29;0.80;;;0.80;;
8439;SDS011;4257;48.568;7.818;2023-12-07T01:11:57;2.57;;;1.67;;
8439;SDS011;4257;48.568;7.818;2023-12-07T01:14:25;2.73;;;1.27;;
8439;SDS011;4257;48.568;7.818;2023-12-07T01:16:51;1.97;;;1.10;;
8439;SDS011;4257;48.568;7.818;2023-12-07T01:19:18;1.23;;;0.80;;
8439;SDS011;4257;48.568;7.818;2023-12-07T01:21:44;0.73;;;0.70;;
8439;SDS011;4257;48.568;7.818;2023-12-07T01:24:11;1.57;;;1.03;;
8439;SDS011;4257;48.568;7.818;2023-12-07T01:26:38;1.27;;;1.17;;
8439;SDS011;4257;48.568;7.818;2023-12-07T01:29:04;1.37;;;1.27;;
8439;SDS011;4257;48.568;7.818;2023-12-07T01:31:32;1.90;;;1.20;;
8439;SDS011;4257;48.568;7.818;2023-12-07T01:33:58;0.77;;;0.70;;
8439;SDS011;4257;48.568;7.818;2023-12-07T01:36:25;1.30;;;1.20;;
8439;SDS011;4257;48.568;7.818;2023-12-07T01:38:51;1.57;;;0.90;;
8439;SDS011;4257;48.568;7.818;2023-12-07T01:41:18;1.57;;;0.67;;
8439;SDS011;4257;48.568;7.818;2023-12-07T01:43:45;1.80;;;1.23;;
8439;SDS011;4257;48.568;7.818;2023-12-07T01:46:12;0.73;;;0.73;;
8439;SDS011;4257;48.568;7.818;2023-12-07T01:48:41;2.23;;;1.00;;
8439;SDS011;4257;48.568;7.818;2023-12-07T01:51:08;0.80;;;0.77;;
8439;SDS011;4257;48.568;7.818;2023-12-07T01:53:35;3.33;;;1.20;;
8439;SDS011;4257;48.568;7.818;2023-12-07T01:56:01;0.97;;;0.87;;
8439;SDS011;4257;48.568;7.818;2023-12-07T01:58:28;0.90;;;0.50;;
8439;SDS011;4257;48.568;7.818;2023-12-07T02:00:55;1.00;;;0.47;;
8439;SDS011;4257;48.568;7.818;2023-12-07T02:03:21;1.63;;;1.47;;
8439;SDS011;4257;48.568;7.818;2023-12-07T02:05:50;1.23;;;0.83;;
8439;SDS011;4257;48.568;7.818;2023-12-07T02:08:17;0.57;;;0.53;;
8439;SDS011;4257;48.568;7.818;2023-12-07T02:10:44;1.40;;;1.07;;
8439;SDS011;4257;48.568;7.818;2023-12-07T02:13:11;1.20;;;1.03;;
8439;SDS011;4257;48.568;7.818;2023-12-07T02:15:37;0.70;;;0.70;;
8439;SDS011;4257;48.568;7.818;2023-12-07T02:18:06;0.60;;;0.60;;
8439;SDS011;4257;48.568;7.818;2023-12-07T02:20:37;1.80;;;0.83;;
8439;SDS011;4257;48.568;7.818;2023-12-07T02:23:07;0.73;;;0.60;;
8439;SDS011;4257;48.568;7.818;2023-12-07T02:25:35;0.50;;;0.50;;
8439;SDS011;4257;48.568;7.818;2023-12-07T02:28:04;0.50;;;0.50;;
8439;SDS011;4257;48.568;7.818;2023-12-07T02:30:31;0.40;;;0.40;;
8439;SDS011;4257;48.568;7.818;2023-12-07T02:32:58;2.73;;;0.83;;
8439;SDS011;4257;48.568;7.818;2023-12-07T02:35:25;2.63;;;0.70;;
8439;SDS011;4257;48.568;7.818;2023-12-07T02:37:51;0.70;;;0.70;;
8439;SDS011;4257;48.568;7.818;2023-12-07T02:40:23;0.87;;;0.87;;
8439;SDS011;4257;48.568;7.818;2023-12-07T02:42:51;1.03;;;0.80;;
8439;SDS011;4257;48.568;7.818;2023-12-07T02:45:20;1.00;;;1.00;;
8439;SDS011;4257;48.568;7.818;2023-12-07T02:47:47;0.87;;;0.83;;
8439;SDS011;4257;48.568;7.818;2023-12-07T02:50:13;0.50;;;0.50;;
8439;SDS011;4257;48.568;7.818;2023-12-07T02:52:40;0.83;;;0.83;;
8439;SDS011;4257;48.568;7.818;2023-12-07T02:55:07;0.40;;;0.40;;
8439;SDS011;4257;48.568;7.818;2023-12-07T02:57:34;1.50;;;1.10;;
8439;SDS011;4257;48.568;7.818;2023-12-07T03:00:00;0.43;;;0.30;;
8439;SDS011;4257;48.568;7.818;2023-12-07T03:02:32;0.87;;;0.73;;
8439;SDS011;4257;48.568;7.818;2023-12-07T03:04:59;3.30;;;1.20;;
8439;SDS011;4257;48.568;7.818;2023-12-07T03:07:26;1.40;;;0.80;;
8439;SDS011;4257;48.568;7.818;2023-12-07T03:09:52;1.30;;;0.87;;
8439;SDS011;4257;48.568;7.818;2023-12-07T03:12:20;2.20;;;1.03;;
8439;SDS011;4257;48.568;7.818;2023-12-07T03:14:47;1.10;;;0.73;;
8439;SDS011;4257;48.568;7.818;2023-12-07T03:17:16;2.33;;;0.87;;
8439;SDS011;4257;48.568;7.818;2023-12-07T03:19:44;1.83;;;0.90;;
8439;SDS011;4257;48.568;7.818;2023-12-07T03:22:10;1.07;;;0.97;;
8439;SDS011;4257;48.568;7.818;2023-12-07T03:24:38;0.67;;;0.67;;
8439;SDS011;4257;48.568;7.818;2023-12-07T03:27:06;0.70;;;0.63;;
8439;SDS011;4257;48.568;7.818;2023-12-07T03:29:32;0.57;;;0.50;;
8439;SDS011;4257;48.568;7.818;2023-12-07T03:31:58;1.40;;;1.30;;
8439;SDS011;4257;48.568;7.818;2023-12-07T03:34:26;1.60;;;1.13;;
8439;SDS011;4257;48.568;7.818;2023-12-07T03:36:54;2.57;;;0.97;;
8439;SDS011;4257;48.568;7.818;2023-12-07T03:39:20;1.27;;;0.80;;
8439;SDS011;4257;48.568;7.818;2023-12-07T03:41:48;0.90;;;0.80;;
8439;SDS011;4257;48.568;7.818;2023-12-07T03:44:14;2.10;;;1.07;;
8439;SDS011;4257;48.568;7.818;2023-12-07T03:46:41;1.67;;;0.87;;
8439;SDS011;4257;48.568;7.818;2023-12-07T03:49:07;0.93;;;0.60;;
8439;SDS011;4257;48.568;7.818;2023-12-07T03:51:34;0.93;;;0.93;;
8439;SDS011;4257;48.568;7.818;2023-12-07T03:54:03;0.50;;;0.50;;
8439;SDS011;4257;48.568;7.818;2023-12-07T03:56:30;1.03;;;0.87;;
8439;SDS011;4257;48.568;7.818;2023-12-07T03:58:58;0.83;;;0.70;;
8439;SDS011;4257;48.568;7.818;2023-12-07T04:01:25;0.67;;;0.67;;
8439;SDS011;4257;48.568;7.818;2023-12-07T04:03:52;0.83;;;0.83;;
8439;SDS011;4257;48.568;7.818;2023-12-07T04:06:19;0.43;;;0.30;;
8439;SDS011;4257;48.568;7.818;2023-12-07T04:08:46;0.70;;;0.70;;
8439;SDS011;4257;48.568;7.818;2023-12-07T04:11:14;1.90;;;1.50;;
8439;SDS011;4257;48.568;7.818;2023-12-07T04:13:42;1.50;;;0.77;;
8439;SDS011;4257;48.568;7.818;2023-12-07T04:16:08;1.33;;;0.77;;
8439;SDS011;4257;48.568;7.818;2023-12-07T04:18:35;0.80;;;0.50;;
8439;SDS011;4257;48.568;7.818;2023-12-07T04:21:02;1.77;;;0.87;;
8439;SDS011;4257;48.568;7.818;2023-12-07T04:23:30;0.60;;;0.60;;
8439;SDS011;4257;48.568;7.818;2023-12-07T04:25:56;0.80;;;0.60;;
8439;SDS011;4257;48.568;7.818;2023-12-07T04:28:24;0.90;;;0.90;;
8439;SDS011;4257;48.568;7.818;2023-12-07T04:30:51;1.10;;;0.80;;
8439;SDS011;4257;48.568;7.818;2023-12-07T04:33:17;1.40;;;0.97;;
8439;SDS011;4257;48.568;7.818;2023-12-07T04:35:44;1.80;;;1.37;;
8439;SDS011;4257;48.568;7.818;2023-12-07T04:38:10;1.00;;;0.70;;
8439;SDS011;4257;48.568;7.818;2023-12-07T04:40:38;0.50;;;0.50;;
8439;SDS011;4257;48.568;7.818;2023-12-07T04:43:04;1.00;;;0.90;;
8439;SDS011;4257;48.568;7.818;2023-12-07T04:45:32;2.60;;;0.90;;
8439;SDS011;4257;48.568;7.818;2023-12-07T04:47:59;2.40;;;1.07;;
8439;SDS011;4257;48.568;7.818;2023-12-07T04:50:25;1.80;;;0.50;;
8439;SDS011;4257;48.568;7.818;2023-12-07T04:52:52;1.40;;;1.23;;
8439;SDS011;4257;48.568;7.818;2023-12-07T04:55:19;1.50;;;1.23;;
8439;SDS011;4257;48.568;7.818;2023-12-07T04:57:46;2.80;;;1.07;;
8439;SDS011;4257;48.568;7.818;2023-12-07T05:00:12;0.90;;;0.77;;
8439;SDS011;4257;48.568;7.818;2023-12-07T05:02:41;1.27;;;1.07;;
8439;SDS011;4257;48.568;7.818;2023-12-07T05:05:07;2.23;;;0.80;;
8439;SDS011;4257;48.568;7.818;2023-12-07T05:07:35;1.10;;;0.63;;
8439;SDS011;4257;48.568;7.818;2023-12-07T05:10:02;1.73;;;1.10;;
8439;SDS011;4257;48.568;7.818;2023-12-07T05:12:29;1.17;;;0.87;;
8439;SDS011;4257;48.568;7.818;2023-12-07T05:14:56;0.77;;;0.73;;
8439;SDS011;4257;48.568;7.818;2023-12-07T05:17:22;2.87;;;0.97;;
8439;SDS011;4257;48.568;7.818;2023-12-07T05:19:50;4.03;;;1.87;;
8439;SDS011;4257;48.568;7.818;2023-12-07T05:22:17;5.00;;;2.17;;
8439;SDS011;4257;48.568;7.818;2023-12-07T05:24:43;8.47;;;2.10;;
8439;SDS011;4257;48.568;7.818;2023-12-07T05:27:10;5.27;;;1.40;;
8439;SDS011;4257;48.568;7.818;2023-12-07T05:29:37;4.20;;;1.10;;
8439;SDS011;4257;48.568;7.818;2023-12-07T05:32:04;5.60;;;1.50;;
8439;SDS011;4257;48.568;7.818;2023-12-07T05:34:31;4.53;;;1.33;;
8439;SDS011;4257;48.568;7.818;2023-12-07T05:36:59;5.23;;;1.10;;
8439;SDS011;4257;48.568;7.818;2023-12-07T05:39:26;1.87;;;1.07;;
8439;SDS011;4257;48.568;7.818;2023-12-07T05:41:52;9.13;;;2.40;;
8439;SDS011;4257;48.568;7.818;2023-12-07T05:44:19;21.30;;;4.53;;
8439;SDS011;4257;48.568;7.818;2023-12-07T05:46:47;5.33;;;2.20;;
8439;SDS011;4257;48.568;7.818;2023-12-07T05:49:14;18.93;;;4.20;;
8439;SDS011;4257;48.568;7.818;2023-12-07T05:51:40;15.63;;;3.57;;
8439;SDS011;4257;48.568;7.818;2023-12-07T05:54:08;12.80;;;3.80;;
8439;SDS011;4257;48.568;7.818;2023-12-07T05:56:35;19.83;;;5.17;;
8439;SDS011;4257;48.568;7.818;2023-12-07T05:59:01;15.20;;;3.40;;
8439;SDS011;4257;48.568;7.818;2023-12-07T06:01:28;14.83;;;3.83;;
8439;SDS011;4257;48.568;7.818;2023-12-07T06:03:54;11.90;;;2.73;;
8439;SDS011;4257;48.568;7.818;2023-12-07T06:06:22;23.67;;;3.87;;
8439;SDS011;4257;48.568;7.818;2023-12-07T06:08:48;5.73;;;1.90;;
8439;SDS011;4257;48.568;7.818;2023-12-07T06:11:16;17.80;;;4.77;;
8439;SDS011;4257;48.568;7.818;2023-12-07T06:13:43;8.10;;;2.20;;
8439;SDS011;4257;48.568;7.818;2023-12-07T06:16:11;11.10;;;3.40;;
8439;SDS011;4257;48.568;7.818;2023-12-07T06:18:39;13.67;;;4.17;;
8439;SDS011;4257;48.568;7.818;2023-12-07T06:21:06;12.43;;;3.40;;
8439;SDS011;4257;48.568;7.818;2023-12-07T06:23:33;10.83;;;4.53;;
8439;SDS011;4257;48.568;7.818;2023-12-07T06:26:00;8.97;;;3.00;;
8439;SDS011;4257;48.568;7.818;2023-12-07T06:28:28;8.97;;;3.90;;
8439;SDS011;4257;48.568;7.818;2023-12-07T06:30:57;9.50;;;3.03;;
8439;SDS011;4257;48.568;7.818;2023-12-07T06:33:23;9.60;;;3.37;;
8439;SDS011;4257;48.568;7.818;2023-12-07T06:35:50;44.07;;;4.07;;
8439;SDS011;4257;48.568;7.818;2023-12-07T06:38:17;10.03;;;2.67;;
8439;SDS011;4257;48.568;7.818;2023-12-07T06:40:46;8.00;;;2.73;;
8439;SDS011;4257;48.568;7.818;2023-12-07T06:43:12;3.60;;;1.97;;
8439;SDS011;4257;48.568;7.818;2023-12-07T06:45:40;12.63;;;3.83;;
8439;SDS011;4257;48.568;7.818;2023-12-07T06:48:07;4.83;;;2.60;;
8439;SDS011;4257;48.568;7.818;2023-12-07T06:50:33;10.53;;;3.30;;
8439;SDS011;4257;48.568;7.818;2023-12-07T06:52:59;7.30;;;2.20;;
8439;SDS011;4257;48.568;7.818;2023-12-07T06:55:26;13.73;;;3.40;;
8439;SDS011;4257;48.568;7.818;2023-12-07T06:57:52;7.00;;;2.10;;
8439;SDS011;4257;48.568;7.818;2023-12-07T07:00:19;18.03;;;5.07;;
8439;SDS011;4257;48.568;7.818;2023-12-07T07:02:47;12.07;;;3.47;;
8439;SDS011;4257;48.568;7.818;2023-12-07T07:05:13;13.23;;;2.93;;
8439;SDS011;4257;48.568;7.818;2023-12-07T07:07:40;11.53;;;3.30;;
8439;SDS011;4257;48.568;7.818;2023-12-07T07:10:07;13.07;;;3.80;;
8439;SDS011;4257;48.568;7.818;2023-12-07T07:12:37;6.47;;;2.80;;
8439;SDS011;4257;48.568;7.818;2023-12-07T07:15:04;7.40;;;3.13;;
8439;SDS011;4257;48.568;7.818;2023-12-07T07:17:33;14.10;;;3.70;;
8439;SDS011;4257;48.568;7.818;2023-12-07T07:20:01;8.73;;;2.30;;
8439;SDS011;4257;48.568;7.818;2023-12-07T07:22:27;10.00;;;3.37;;
8439;SDS011;4257;48.568;7.818;2023-12-07T07:24:54;3.83;;;1.60;;
8439;SDS011;4257;48.568;7.818;2023-12-07T07:27:20;7.07;;;1.57;;
8439;SDS011;4257;48.568;7.818;2023-12-07T07:29:46;5.63;;;1.30;;
8439;SDS011;4257;48.568;7.818;2023-12-07T07:32:13;11.40;;;3.07;;
8439;SDS011;4257;48.568;7.818;2023-12-07T07:34:40;3.27;;;1.67;;
8439;SDS011;4257;48.568;7.818;2023-12-07T07:37:08;6.73;;;1.93;;
8439;SDS011;4257;48.568;7.818;2023-12-07T07:39:34;13.57;;;2.60;;
8439;SDS011;4257;48.568;7.818;2023-12-07T07:42:01;5.57;;;2.60;;
8439;SDS011;4257;48.568;7.818;2023-12-07T07:44:27;7.87;;;2.03;;
8439;SDS011;4257;48.568;7.818;2023-12-07T07:46:53;4.47;;;1.80;;
8439;SDS011;4257;48.568;7.818;2023-12-07T07:49:20;4.13;;;1.60;;
8439;SDS011;4257;48.568;7.818;2023-12-07T07:51:47;13.20;;;2.33;;
8439;SDS011;4257;48.568;7.818;2023-12-07T07:54:15;5.50;;;2.13;;
8439;SDS011;4257;48.568;7.818;2023-12-07T07:56:42;6.83;;;2.47;;
8439;SDS011;4257;48.568;7.818;2023-12-07T07:59:09;5.33;;;1.93;;
8439;SDS011;4257;48.568;7.818;2023-12-07T08:01:36;5.87;;;2.17;;
8439;SDS011;4257;48.568;7.818;2023-12-07T08:04:03;6.60;;;2.50;;
8439;SDS011;4257;48.568;7.818;2023-12-07T08:06:29;6.00;;;1.40;;
8439;SDS011;4257;48.568;7.818;2023-12-07T08:08:56;2.07;;;1.33;;
8439;SDS011;4257;48.568;7.818;2023-12-07T08:11:24;6.93;;;2.10;;
8439;SDS011;4257;48.568;7.818;2023-12-07T08:13:50;7.93;;;2.73;;
8439;SDS011;4257;48.568;7.818;2023-12-07T08:16:17;8.90;;;3.23;;
8439;SDS011;4257;48.568;7.818;2023-12-07T08:18:44;12.27;;;3.17;;
8439;SDS011;4257;48.568;7.818;2023-12-07T08:21:17;26.63;;;5.60;;
8439;SDS011;4257;48.568;7.818;2023-12-07T08:23:44;5.80;;;2.23;;
8439;SDS011;4257;48.568;7.818;2023-12-07T08:26:11;4.23;;;2.70;;
8439;SDS011;4257;48.568;7.818;2023-12-07T08:28:40;16.07;;;4.07;;
8439;SDS011;4257;48.568;7.818;2023-12-07T08:31:07;11.43;;;5.40;;
8439;SDS011;4257;48.568;7.818;2023-12-07T08:33:33;11.03;;;3.63;;
8439;SDS011;4257;48.568;7.818;2023-12-07T08:36:00;3.70;;;2.83;;
8439;SDS011;4257;48.568;7.818;2023-12-07T08:38:27;3.17;;;1.57;;
8439;SDS011;4257;48.568;7.818;2023-12-07T08:40:53;2.13;;;1.53;;
8439;SDS011;4257;48.568;7.818;2023-12-07T08:43:21;5.23;;;1.87;;
8439;SDS011;4257;48.568;7.818;2023-12-07T08:45:49;5.13;;;2.33;;
8439;SDS011;4257;48.568;7.818;2023-12-07T08:48:16;7.10;;;2.60;;
8439;SDS011;4257;48.568;7.818;2023-12-07T08:50:43;6.77;;;2.53;;
8439;SDS011;4257;48.568;7.818;2023-12-07T08:53:10;12.00;;;4.60;;
8439;SDS011;4257;48.568;7.818;2023-12-07T08:55:36;22.80;;;5.50;;
8439;SDS011;4257;48.568;7.818;2023-12-07T08:58:03;12.27;;;2.83;;
8439;SDS011;4257;48.568;7.818;2023-12-07T09:00:30;16.07;;;5.10;;
8439;SDS011;4257;48.568;7.818;2023-12-07T09:02:57;9.20;;;3.67;;
8439;SDS011;4257;48.568;7.818;2023-12-07T09:05:25;9.97;;;3.50;;
8439;SDS011;4257;48.568;7.818;2023-12-07T09:07:52;12.90;;;3.70;;
8439;SDS011;4257;48.568;7.818;2023-12-07T09:10:18;9.93;;;4.10;;
8439;SDS011;4257;48.568;7.818;2023-12-07T09:12:45;7.30;;;3.00;;
8439;SDS011;4257;48.568;7.818;2023-12-07T09:15:12;15.83;;;4.27;;
8439;SDS011;4257;48.568;7.818;2023-12-07T09:17:38;9.03;;;2.80;;
8439;SDS011;4257;48.568;7.818;2023-12-07T09:20:07;13.83;;;4.23;;
8439;SDS011;4257;48.568;7.818;2023-12-07T09:22:37;16.00;;;3.97;;
8439;SDS011;4257;48.568;7.818;2023-12-07T09:25:04;11.13;;;4.40;;
8439;SDS011;4257;48.568;7.818;2023-12-07T09:27:32;8.00;;;2.90;;
8439;SDS011;4257;48.568;7.818;2023-12-07T09:30:00;6.70;;;3.07;;
8439;SDS011;4257;48.568;7.818;2023-12-07T09:32:26;8.23;;;3.00;;
8439;SDS011;4257;48.568;7.818;2023-12-07T09:34:53;11.03;;;3.53;;
8439;SDS011;4257;48.568;7.818;2023-12-07T09:37:21;6.77;;;2.87;;
8439;SDS011;4257;48.568;7.818;2023-12-07T09:39:47;7.43;;;2.70;;
8439;SDS011;4257;48.568;7.818;2023-12-07T09:42:14;8.90;;;3.13;;
8439;SDS011;4257;48.568;7.818;2023-12-07T09:44:40;18.77;;;4.97;;
8439;SDS011;4257;48.568;7.818;2023-12-07T09:47:07;4.27;;;2.20;;
8439;SDS011;4257;48.568;7.818;2023-12-07T09:49:34;6.77;;;3.10;;
8439;SDS011;4257;48.568;7.818;2023-12-07T09:52:00;7.70;;;2.80;;
8439;SDS011;4257;48.568;7.818;2023-12-07T09:54:30;6.23;;;2.70;;
8439;SDS011;4257;48.568;7.818;2023-12-07T09:56:57;5.17;;;2.43;;
8439;SDS011;4257;48.568;7.818;2023-12-07T09:59:24;5.57;;;2.63;;
8439;SDS011;4257;48.568;7.818;2023-12-07T10:01:50;9.57;;;2.87;;
8439;SDS011;4257;48.568;7.818;2023-12-07T10:04:18;2.87;;;1.27;;
8439;SDS011;4257;48.568;7.818;2023-12-07T10:06:47;5.87;;;3.17;;
8439;SDS011;4257;48.568;7.818;2023-12-07T10:09:14;2.87;;;1.57;;
8439;SDS011;4257;48.568;7.818;2023-12-07T10:11:42;4.13;;;1.70;;
8439;SDS011;4257;48.568;7.818;2023-12-07T10:14:09;2.20;;;1.77;;
8439;SDS011;4257;48.568;7.818;2023-12-07T10:16:36;3.30;;;2.03;;
8439;SDS011;4257;48.568;7.818;2023-12-07T10:19:12;3.97;;;1.87;;
8439;SDS011;4257;48.568;7.818;2023-12-07T10:21:39;2.83;;;1.37;;
8439;SDS011;4257;48.568;7.818;2023-12-07T10:24:05;1.93;;;1.70;;
8439;SDS011;4257;48.568;7.818;2023-12-07T10:26:32;3.27;;;1.93;;
8439;SDS011;4257;48.568;7.818;2023-12-07T10:29:00;19.63;;;3.67;;
8439;SDS011;4257;48.568;7.818;2023-12-07T10:31:27;3.63;;;2.17;;
8439;SDS011;4257;48.568;7.818;2023-12-07T10:33:56;2.67;;;2.17;;
8439;SDS011;4257;48.568;7.818;2023-12-07T10:36:23;3.27;;;2.23;;
8439;SDS011;4257;48.568;7.818;2023-12-07T10:38:49;4.37;;;3.10;;
8439;SDS011;4257;48.568;7.818;2023-12-07T10:41:17;3.93;;;2.93;;
8439;SDS011;4257;48.568;7.818;2023-12-07T10:43:47;9.83;;;2.70;;
8439;SDS011;4257;48.568;7.818;2023-12-07T10:46:16;6.20;;;2.77;;
8439;SDS011;4257;48.568;7.818;2023-12-07T10:48:48;4.00;;;2.60;;
8439;SDS011;4257;48.568;7.818;2023-12-07T10:51:17;4.07;;;1.57;;
8439;SDS011;4257;48.568;7.818;2023-12-07T10:53:56;11.80;;;2.40;;
8439;SDS011;4257;48.568;7.818;2023-12-07T10:56:24;5.93;;;3.70;;
8439;SDS011;4257;48.568;7.818;2023-12-07T10:58:55;2.73;;;1.60;;
8439;SDS011;4257;48.568;7.818;2023-12-07T11:01:24;6.33;;;3.43;;
8439;SDS011;4257;48.568;7.818;2023-12-07T11:03:51;5.27;;;3.03;;
8439;SDS011;4257;48.568;7.818;2023-12-07T11:06:20;5.10;;;2.60;;
8439;SDS011;4257;48.568;7.818;2023-12-07T11:08:47;7.47;;;2.50;;
8439;SDS011;4257;48.568;7.818;2023-12-07T11:11:18;9.20;;;4.27;;
8439;SDS011;4257;48.568;7.818;2023-12-07T11:13:49;6.67;;;2.97;;
8439;SDS011;4257;48.568;7.818;2023-12-07T11:16:29;3.73;;;2.90;;
8439;SDS011;4257;48.568;7.818;2023-12-07T11:18:56;4.27;;;2.37;;
8439;SDS011;4257;48.568;7.818;2023-12-07T11:21:22;5.20;;;2.37;;
8439;SDS011;4257;48.568;7.818;2023-12-07T11:23:49;7.13;;;3.83;;
8439;SDS011;4257;48.568;7.818;2023-12-07T11:26:18;3.37;;;2.23;;
8439;SDS011;4257;48.568;7.818;2023-12-07T11:28:45;3.73;;;2.43;;
8439;SDS011;4257;48.568;7.818;2023-12-07T11:31:12;3.57;;;2.93;;
8439;SDS011;4257;48.568;7.818;2023-12-07T11:33:40;9.63;;;2.67;;
8439;SDS011;4257;48.568;7.818;2023-12-07T11:36:08;3.27;;;1.93;;
8439;SDS011;4257;48.568;7.818;2023-12-07T11:38:36;4.07;;;2.50;;
8439;SDS011;4257;48.568;7.818;2023-12-07T11:41:03;7.43;;;2.20;;
8439;SDS011;4257;48.568;7.818;2023-12-07T11:43:36;2.47;;;1.90;;
8439;SDS011;4257;48.568;7.818;2023-12-07T11:46:05;4.33;;;2.33;;
8439;SDS011;4257;48.568;7.818;2023-12-07T11:48:32;12.40;;;3.53;;
8439;SDS011;4257;48.568;7.818;2023-12-07T11:51:01;5.87;;;2.37;;
8439;SDS011;4257;48.568;7.818;2023-12-07T11:53:28;5.63;;;2.57;;
8439;SDS011;4257;48.568;7.818;2023-12-07T11:55:56;8.90;;;2.87;;
8439;SDS011;4257;48.568;7.818;2023-12-07T11:58:24;18.90;;;2.67;;
8439;SDS011;4257;48.568;7.818;2023-12-07T12:00:51;3.93;;;2.63;;
8439;SDS011;4257;48.568;7.818;2023-12-07T12:03:18;5.90;;;2.53;;
8439;SDS011;4257;48.568;7.818;2023-12-07T12:05:45;5.73;;;2.60;;
8439;SDS011;4257;48.568;7.818;2023-12-07T12:08:13;5.10;;;2.67;;
8439;SDS011;4257;48.568;7.818;2023-12-07T12:10:40;3.47;;;2.20;;
8439;SDS011;4257;48.568;7.818;2023-12-07T12:13:08;3.13;;;2.07;;
8439;SDS011;4257;48.568;7.818;2023-12-07T12:15:35;6.30;;;3.30;;
8439;SDS011;4257;48.568;7.818;2023-12-07T12:18:03;7.00;;;3.30;;
8439;SDS011;4257;48.568;7.818;2023-12-07T12:20:30;9.43;;;2.33;;
8439;SDS011;4257;48.568;7.818;2023-12-07T12:22:59;1.37;;;1.10;;
8439;SDS011;4257;48.568;7.818;2023-12-07T12:25:28;6.53;;;1.90;;
8439;SDS011;4257;48.568;7.818;2023-12-07T12:27:55;1.57;;;1.47;;
8439;SDS011;4257;48.568;7.818;2023-12-07T12:30:22;1.77;;;1.27;;
8439;SDS011;4257;48.568;7.818;2023-12-07T12:32:49;2.50;;;1.73;;
8439;SDS011;4257;48.568;7.818;2023-12-07T12:35:16;5.60;;;2.37;;
8439;SDS011;4257;48.568;7.818;2023-12-07T12:37:43;6.43;;;2.47;;
8439;SDS011;4257;48.568;7.818;2023-12-07T12:40:10;1.60;;;1.27;;
8439;SDS011;4257;48.568;7.818;2023-12-07T12:42:39;5.47;;;1.90;;
8439;SDS011;4257;48.568;7.818;2023-12-07T12:45:07;7.17;;;3.60;;
8439;SDS011;4257;48.568;7.818;2023-12-07T12:47:35;3.10;;;2.10;;
8439;SDS011;4257;48.568;7.818;2023-12-07T12:50:02;6.47;;;3.13;;
8439;SDS011;4257;48.568;7.818;2023-12-07T12:52:30;2.57;;;1.80;;
8439;SDS011;4257;48.568;7.818;2023-12-07T12:54:56;4.87;;;3.47;;
8439;SDS011;4257;48.568;7.818;2023-12-07T12:57:23;13.67;;;3.63;;
8439;SDS011;4257;48.568;7.818;2023-12-07T12:59:51;7.43;;;2.10;;
8439;SDS011;4257;48.568;7.818;2023-12-07T13:02:18;5.73;;;1.40;;
8439;SDS011;4257;48.568;7.818;2023-12-07T13:04:45;3.43;;;1.97;;
8439;SDS011;4257;48.568;7.818;2023-12-07T13:07:11;2.20;;;2.10;;
8439;SDS011;4257;48.568;7.818;2023-12-07T13:09:38;1.87;;;1.63;;
8439;SDS011;4257;48.568;7.818;2023-12-07T13:12:05;2.67;;;2.50;;
8439;SDS011;4257;48.568;7.818;2023-12-07T13:14:32;6.33;;;2.87;;
8439;SDS011;4257;48.568;7.818;2023-12-07T13:17:01;3.87;;;3.23;;
8439;SDS011;4257;48.568;7.818;2023-12-07T13:19:29;2.40;;;1.33;;
8439;SDS011;4257;48.568;7.818;2023-12-07T13:21:55;6.67;;;3.13;;
8439;SDS011;4257;48.568;7.818;2023-12-07T13:24:22;3.37;;;2.70;;
8439;SDS011;4257;48.568;7.818;2023-12-07T13:26:48;11.37;;;1.90;;
8439;SDS011;4257;48.568;7.818;2023-12-07T13:29:15;6.77;;;2.40;;
8439;SDS011;4257;48.568;7.818;2023-12-07T13:31:41;1.77;;;1.30;;
8439;SDS011;4257;48.568;7.818;2023-12-07T13:34:09;2.77;;;1.87;;
8439;SDS011;4257;48.568;7.818;2023-12-07T13:36:36;5.77;;;2.20;;
8439;SDS011;4257;48.568;7.818;2023-12-07T13:39:03;2.87;;;1.63;;
8439;SDS011;4257;48.568;7.818;2023-12-07T13:41:29;5.43;;;2.60;;
8439;SDS011;4257;48.568;7.818;2023-12-07T13:43:56;1.40;;;1.30;;
8439;SDS011;4257;48.568;7.818;2023-12-07T13:46:22;1.90;;;1.37;;
8439;SDS011;4257;48.568;7.818;2023-12-07T13:48:49;3.00;;;2.53;;
8439;SDS011;4257;48.568;7.818;2023-12-07T13:51:17;4.80;;;1.63;;
8439;SDS011;4257;48.568;7.818;2023-12-07T13:53:44;3.53;;;3.23;;
8439;SDS011;4257;48.568;7.818;2023-12-07T13:56:11;4.57;;;3.37;;
8439;SDS011;4257;48.568;7.818;2023-12-07T13:58:38;3.03;;;2.83;;
8439;SDS011;4257;48.568;7.818;2023-12-07T14:01:05;3.67;;;2.03;;
8439;SDS011;4257;48.568;7.818;2023-12-07T14:03:31;5.37;;;1.90;;
8439;SDS011;4257;48.568;7.818;2023-12-07T14:05:58;4.17;;;1.70;;
8439;SDS011;4257;48.568;7.818;2023-12-07T14:08:26;2.43;;;1.50;;
8439;SDS011;4257;48.568;7.818;2023-12-07T14:10:52;6.57;;;2.50;;
8439;SDS011;4257;48.568;7.818;2023-12-07T14:13:19;4.47;;;1.50;;
8439;SDS011;4257;48.568;7.818;2023-12-07T14:15:45;2.47;;;2.27;;
8439;SDS011;4257;48.568;7.818;2023-12-07T14:18:12;11.10;;;2.60;;
8439;SDS011;4257;48.568;7.818;2023-12-07T14:20:40;51.97;;;4.07;;
8439;SDS011;4257;48.568;7.818;2023-12-07T14:23:06;4.30;;;1.30;;
8439;SDS011;4257;48.568;7.818;2023-12-07T14:25:34;2.47;;;1.23;;
8439;SDS011;4257;48.568;7.818;2023-12-07T14:28:01;3.50;;;2.50;;
8439;SDS011;4257;48.568;7.818;2023-12-07T14:30:27;6.80;;;1.43;;
8439;SDS011;4257;48.568;7.818;2023-12-07T14:32:54;2.47;;;1.70;;
8439;SDS011;4257;48.568;7.818;2023-12-07T14:35:20;5.77;;;3.20;;
8439;SDS011;4257;48.568;7.818;2023-12-07T14:37:48;4.53;;;2.00;;
8439;SDS011;4257;48.568;7.818;2023-12-07T14:40:16;12.20;;;3.00;;
8439;SDS011;4257;48.568;7.818;2023-12-07T14:42:43;4.90;;;1.60;;
8439;SDS011;4257;48.568;7.818;2023-12-07T14:45:10;3.47;;;1.77;;
8439;SDS011;4257;48.568;7.818;2023-12-07T14:47:37;1.13;;;1.03;;
8439;SDS011;4257;48.568;7.818;2023-12-07T14:50:04;1.47;;;1.00;;
8439;SDS011;4257;48.568;7.818;2023-12-07T14:52:31;1.93;;;0.97;;
8439;SDS011;4257;48.568;7.818;2023-12-07T14:54:57;6.17;;;1.93;;
8439;SDS011;4257;48.568;7.818;2023-12-07T14:57:24;0.70;;;0.70;;
8439;SDS011;4257;48.568;7.818;2023-12-07T14:59:52;3.13;;;1.40;;
8439;SDS011;4257;48.568;7.818;2023-12-07T15:02:19;7.00;;;1.97;;
8439;SDS011;4257;48.568;7.818;2023-12-07T15:04:46;2.60;;;1.67;;
8439;SDS011;4257;48.568;7.818;2023-12-07T15:07:14;2.73;;;1.73;;
8439;SDS011;4257;48.568;7.818;2023-12-07T15:09:42;1.90;;;1.43;;
8439;SDS011;4257;48.568;7.818;2023-12-07T15:12:09;3.40;;;1.63;;